sensor_id;sensor_type;location;lat;lon;timestamp;pressure;altitude;pressure_sealevel;temperature;humidity
25560;BME280;13450;49.374;8.584;2023-05-28T00:01:07;100648.09;;;16.29;66.30
25560;BME280;13450;49.374;8.584;2023-05-28T00:03:32;100649.13;;;16.28;73.32
25560;BME280;13450;49.374;8.584;2023-05-28T00:06:00;100642.16;;;16.14;67.55
25560;BME280;13450;49.374;8.584;2023-05-28T00:08:26;100653.81;;;16.07;75.42
25560;BME280;13450;49.374;8.584;2023-05-28T00:10:56;100651.03;;;15.82;72.72
25560;BME280;13450;49.374;8.584;2023-05-28T00:13:27;100645.75;;;15.55;83.47
25560;BME280;13450;49.374;8.584;2023-05-28T00:15:52;100654.50;;;15.37;73.46
25560;BME280;13450;49.374;8.584;2023-05-28T00:18:18;100653.72;;;15.29;84.11
25560;BME280;13450;49.374;8.584;2023-05-28T00:20:43;100663.88;;;15.21;84.65
25560;BME280;13450;49.374;8.584;2023-05-28T00:23:08;100660.38;;;15.07;79.19
25560;BME280;13450;49.374;8.584;2023-05-28T00:25:34;100656.22;;;14.97;76.75
25560;BME280;13450;49.374;8.584;2023-05-28T00:27:59;100657.09;;;14.91;80.24
25560;BME280;13450;49.374;8.584;2023-05-28T00:30:25;100658.34;;;14.82;77.47
25560;BME280;13450;49.374;8.584;2023-05-28T00:32:57;100648.78;;;14.72;77.71
25560;BME280;13450;49.374;8.584;2023-05-28T00:35:22;100653.53;;;14.70;83.67
25560;BME280;13450;49.374;8.584;2023-05-28T00:37:47;100652.91;;;14.68;82.37
25560;BME280;13450;49.374;8.584;2023-05-28T00:40:13;100663.69;;;14.68;86.24
25560;BME280;13450;49.374;8.584;2023-05-28T00:42:43;100651.28;;;14.54;80.29
25560;BME280;13450;49.374;8.584;2023-05-28T00:45:09;100648.78;;;14.45;87.38
25560;BME280;13450;49.374;8.584;2023-05-28T00:47:38;100654.13;;;14.32;89.91
25560;BME280;13450;49.374;8.584;2023-05-28T00:50:06;100654.13;;;14.18;79.71
25560;BME280;13450;49.374;8.584;2023-05-28T00:52:35;100654.50;;;14.08;88.94
25560;BME280;13450;49.374;8.584;2023-05-28T00:55:00;100652.00;;;14.00;84.89
25560;BME280;13450;49.374;8.584;2023-05-28T00:57:26;100652.81;;;14.01;96.88
25560;BME280;13450;49.374;8.584;2023-05-28T00:59:52;100650.31;;;13.92;94.47
25560;BME280;13450;49.374;8.584;2023-05-28T01:02:20;100655.25;;;13.82;100.00
25560;BME280;13450;49.374;8.584;2023-05-28T01:04:45;100644.28;;;13.77;100.00
25560;BME280;13450;49.374;8.584;2023-05-28T01:07:10;100643.84;;;13.73;99.77
25560;BME280;13450;49.374;8.584;2023-05-28T01:09:39;100641.97;;;13.67;94.38
25560;BME280;13450;49.374;8.584;2023-05-28T01:12:06;100636.56;;;13.67;100.00
25560;BME280;13450;49.374;8.584;2023-05-28T01:14:33;100638.19;;;13.54;100.00
25560;BME280;13450;49.374;8.584;2023-05-28T01:17:03;100648.41;;;13.37;100.00
25560;BME280;13450;49.374;8.584;2023-05-28T01:19:28;100639.25;;;13.25;100.00
25560;BME280;13450;49.374;8.584;2023-05-28T01:22:03;100637.41;;;13.25;100.00
25560;BME280;13450;49.374;8.584;2023-05-28T01:24:31;100635.53;;;13.26;100.00
25560;BME280;13450;49.374;8.584;2023-05-28T01:26:57;100639.53;;;13.08;100.00
25560;BME280;13450;49.374;8.584;2023-05-28T01:29:26;100637.66;;;13.02;100.00
25560;BME280;13450;49.374;8.584;2023-05-28T01:31:52;100640.69;;;12.92;100.00
25560;BME280;13450;49.374;8.584;2023-05-28T01:34:17;100641.13;;;12.95;100.00
25560;BME280;13450;49.374;8.584;2023-05-28T01:37:04;100643.31;;;12.85;100.00
25560;BME280;13450;49.374;8.584;2023-05-28T01:39:37;100638.31;;;12.75;100.00
25560;BME280;13450;49.374;8.584;2023-05-28T01:42:05;100631.47;;;12.73;100.00
25560;BME280;13450;49.374;8.584;2023-05-28T01:44:33;100642.59;;;12.69;100.00
25560;BME280;13450;49.374;8.584;2023-05-28T01:46:58;100638.75;;;12.79;100.00
25560;BME280;13450;49.374;8.584;2023-05-28T01:49:24;100642.59;;;12.69;100.00
25560;BME280;13450;49.374;8.584;2023-05-28T01:51:50;100632.22;;;12.66;100.00
25560;BME280;13450;49.374;8.584;2023-05-28T01:54:16;100631.19;;;12.67;100.00
25560;BME280;13450;49.374;8.584;2023-05-28T01:56:42;100632.41;;;12.65;100.00
25560;BME280;13450;49.374;8.584;2023-05-28T01:59:07;100645.34;;;12.54;100.00
25560;BME280;13450;49.374;8.584;2023-05-28T02:01:33;100639.09;;;12.47;100.00
25560;BME280;13450;49.374;8.584;2023-05-28T02:04:01;100637.38;;;12.39;100.00
25560;BME280;13450;49.374;8.584;2023-05-28T02:06:29;100642.44;;;12.27;100.00
25560;BME280;13450;49.374;8.584;2023-05-28T02:08:55;100629.31;;;12.18;100.00
25560;BME280;13450;49.374;8.584;2023-05-28T02:11:20;100632.59;;;12.13;100.00
25560;BME280;13450;49.374;8.584;2023-05-28T02:13:47;100644.13;;;12.13;100.00
25560;BME280;13450;49.374;8.584;2023-05-28T02:16:16;100631.38;;;12.15;100.00
25560;BME280;13450;49.374;8.584;2023-05-28T02:18:49;100635.91;;;12.15;100.00
25560;BME280;13450;49.374;8.584;2023-05-28T02:21:16;100624.97;;;12.16;100.00
25560;BME280;13450;49.374;8.584;2023-05-28T02:23:45;100626.38;;;12.12;100.00
25560;BME280;13450;49.374;8.584;2023-05-28T02:26:11;100633.41;;;12.13;100.00
25560;BME280;13450;49.374;8.584;2023-05-28T02:28:40;100629.06;;;12.12;100.00
25560;BME280;13450;49.374;8.584;2023-05-28T02:31:08;100631.75;;;12.12;100.00
25560;BME280;13450;49.374;8.584;2023-05-28T02:33:33;100632.16;;;12.09;100.00
25560;BME280;13450;49.374;8.584;2023-05-28T02:36:01;100634.19;;;12.07;100.00
25560;BME280;13450;49.374;8.584;2023-05-28T02:38:26;100624.63;;;12.04;100.00
25560;BME280;13450;49.374;8.584;2023-05-28T02:40:52;100625.59;;;11.97;100.00
25560;BME280;13450;49.374;8.584;2023-05-28T02:43:17;100619.13;;;11.91;100.00
25560;BME280;13450;49.374;8.584;2023-05-28T02:45:43;100625.69;;;11.88;100.00
25560;BME280;13450;49.374;8.584;2023-05-28T02:48:08;100626.72;;;11.87;100.00
25560;BME280;13450;49.374;8.584;2023-05-28T02:50:33;100634.63;;;11.74;100.00
25560;BME280;13450;49.374;8.584;2023-05-28T02:52:58;100633.69;;;11.67;100.00
25560;BME280;13450;49.374;8.584;2023-05-28T02:55:24;100627.97;;;11.70;100.00
25560;BME280;13450;49.374;8.584;2023-05-28T02:57:51;100627.97;;;11.70;100.00
25560;BME280;13450;49.374;8.584;2023-05-28T03:00:18;100634.72;;;11.66;100.00
25560;BME280;13450;49.374;8.584;2023-05-28T03:02:43;100625.47;;;11.68;100.00
25560;BME280;13450;49.374;8.584;2023-05-28T03:05:08;100624.25;;;11.71;100.00
25560;BME280;13450;49.374;8.584;2023-05-28T03:07:35;100630.38;;;11.64;100.00
25560;BME280;13450;49.374;8.584;2023-05-28T03:10:00;100627.03;;;11.62;100.00
25560;BME280;13450;49.374;8.584;2023-05-28T03:12:26;100629.81;;;11.54;100.00
25560;BME280;13450;49.374;8.584;2023-05-28T03:14:51;100625.31;;;11.55;100.00
25560;BME280;13450;49.374;8.584;2023-05-28T03:17:17;100633.34;;;11.55;100.00
25560;BME280;13450;49.374;8.584;2023-05-28T03:19:42;100630.22;;;11.51;100.00
25560;BME280;13450;49.374;8.584;2023-05-28T03:22:09;100630.22;;;11.51;100.00
25560;BME280;13450;49.374;8.584;2023-05-28T03:24:34;100636.69;;;11.42;100.00
25560;BME280;13450;49.374;8.584;2023-05-28T03:27:01;100640.09;;;11.35;100.00
25560;BME280;13450;49.374;8.584;2023-05-28T03:29:27;100632.16;;;11.27;100.00
25560;BME280;13450;49.374;8.584;2023-05-28T03:31:52;100637.78;;;11.32;100.00
25560;BME280;13450;49.374;8.584;2023-05-28T03:34:17;100637.06;;;11.38;100.00
25560;BME280;13450;49.374;8.584;2023-05-28T03:36:43;100630.75;;;11.31;100.00
25560;BME280;13450;49.374;8.584;2023-05-28T03:39:09;100637.78;;;11.32;100.00
25560;BME280;13450;49.374;8.584;2023-05-28T03:41:36;100635.50;;;11.29;100.00
25560;BME280;13450;49.374;8.584;2023-05-28T03:44:04;100644.72;;;11.27;100.00
25560;BME280;13450;49.374;8.584;2023-05-28T03:46:30;100638.25;;;11.21;100.00
25560;BME280;13450;49.374;8.584;2023-05-28T03:48:56;100634.91;;;11.19;100.00
25560;BME280;13450;49.374;8.584;2023-05-28T03:51:24;100629.78;;;11.17;100.00
25560;BME280;13450;49.374;8.584;2023-05-28T03:53:50;100624.31;;;11.10;100.00
25560;BME280;13450;49.374;8.584;2023-05-28T03:56:16;100632.03;;;11.05;100.00
25560;BME280;13450;49.374;8.584;2023-05-28T03:58:42;100637.50;;;11.12;100.00
25560;BME280;13450;49.374;8.584;2023-05-28T04:01:07;100631.69;;;11.08;100.00
25560;BME280;13450;49.374;8.584;2023-05-28T04:03:37;100637.13;;;11.15;100.00
25560;BME280;13450;49.374;8.584;2023-05-28T04:06:03;100635.56;;;11.21;100.00
25560;BME280;13450;49.374;8.584;2023-05-28T04:08:29;100638.34;;;11.28;100.00
25560;BME280;13450;49.374;8.584;2023-05-28T04:10:55;100637.78;;;11.32;100.00
25560;BME280;13450;49.374;8.584;2023-05-28T04:13:20;100640.75;;;11.37;100.00
25560;BME280;13450;49.374;8.584;2023-05-28T04:15:46;100639.63;;;11.47;100.00
25560;BME280;13450;49.374;8.584;2023-05-28T04:18:11;100641.66;;;11.45;100.00
25560;BME280;13450;49.374;8.584;2023-05-28T04:20:36;100636.78;;;11.48;100.00
25560;BME280;13450;49.374;8.584;2023-05-28T04:23:02;100641.66;;;11.60;100.00
25560;BME280;13450;49.374;8.584;2023-05-28T04:25:28;100637.41;;;11.66;100.00
25560;BME280;13450;49.374;8.584;2023-05-28T04:27:54;100641.09;;;11.64;100.00
25560;BME280;13450;49.374;8.584;2023-05-28T04:30:19;100646.47;;;11.64;100.00
25560;BME280;13450;49.374;8.584;2023-05-28T04:32:45;100644.41;;;11.67;100.00
25560;BME280;13450;49.374;8.584;2023-05-28T04:35:11;100651.06;;;11.71;100.00
25560;BME280;13450;49.374;8.584;2023-05-28T04:37:37;100655.41;;;11.72;100.00
25560;BME280;13450;49.374;8.584;2023-05-28T04:40:06;100647.25;;;11.80;100.00
25560;BME280;13450;49.374;8.584;2023-05-28T04:42:32;100657.34;;;11.78;100.00
25560;BME280;13450;49.374;8.584;2023-05-28T04:44:58;100651.22;;;11.84;100.00
25560;BME280;13450;49.374;8.584;2023-05-28T04:47:24;100654.94;;;11.83;100.00
25560;BME280;13450;49.374;8.584;2023-05-28T04:49:49;100653.28;;;11.82;100.00
25560;BME280;13450;49.374;8.584;2023-05-28T04:52:15;100660.75;;;11.87;100.00
25560;BME280;13450;49.374;8.584;2023-05-28T04:54:41;100657.09;;;11.95;100.00
25560;BME280;13450;49.374;8.584;2023-05-28T04:57:07;100657.69;;;12.05;100.00
25560;BME280;13450;49.374;8.584;2023-05-28T04:59:34;100661.44;;;12.11;100.00
25560;BME280;13450;49.374;8.584;2023-05-28T05:02:00;100659.84;;;12.16;100.00
25560;BME280;13450;49.374;8.584;2023-05-28T05:04:26;100664.84;;;12.20;100.00
25560;BME280;13450;49.374;8.584;2023-05-28T05:06:51;100666.88;;;12.18;100.00
25560;BME280;13450;49.374;8.584;2023-05-28T05:09:16;100666.94;;;12.24;100.00
25560;BME280;13450;49.374;8.584;2023-05-28T05:11:42;100671.16;;;12.34;100.00
25560;BME280;13450;49.374;8.584;2023-05-28T05:14:07;100670.84;;;12.43;100.00
25560;BME280;13450;49.374;8.584;2023-05-28T05:16:32;100669.31;;;12.56;100.00
25560;BME280;13450;49.374;8.584;2023-05-28T05:18:58;100669.38;;;12.63;100.00
25560;BME280;13450;49.374;8.584;2023-05-28T05:21:24;100674.44;;;12.73;100.00
25560;BME280;13450;49.374;8.584;2023-05-28T05:23:49;100670.81;;;12.87;100.00
25560;BME280;13450;49.374;8.584;2023-05-28T05:26:15;100678.75;;;12.95;100.00
25560;BME280;13450;49.374;8.584;2023-05-28T05:28:43;100678.13;;;13.00;100.00
25560;BME280;13450;49.374;8.584;2023-05-28T05:31:09;100687.09;;;13.07;100.00
25560;BME280;13450;49.374;8.584;2023-05-28T05:33:37;100684.25;;;13.16;100.00
25560;BME280;13450;49.374;8.584;2023-05-28T05:36:05;100684.72;;;13.26;100.00
25560;BME280;13450;49.374;8.584;2023-05-28T05:38:31;100680.00;;;13.35;100.00
25560;BME280;13450;49.374;8.584;2023-05-28T05:40:56;100680.69;;;13.44;100.00
25560;BME280;13450;49.374;8.584;2023-05-28T05:43:22;100687.00;;;13.58;100.00
25560;BME280;13450;49.374;8.584;2023-05-28T05:45:47;100686.22;;;13.64;100.00
25560;BME280;13450;49.374;8.584;2023-05-28T05:48:13;100692.03;;;13.75;100.00
25560;BME280;13450;49.374;8.584;2023-05-28T05:50:51;100683.41;;;13.86;100.00
25560;BME280;13450;49.374;8.584;2023-05-28T05:53:17;100688.63;;;13.94;100.00
25560;BME280;13450;49.374;8.584;2023-05-28T05:55:43;100690.50;;;14.07;100.00
25560;BME280;13450;49.374;8.584;2023-05-28T05:58:09;100686.81;;;14.15;100.00
25560;BME280;13450;49.374;8.584;2023-05-28T06:00:34;100688.06;;;14.26;100.00
25560;BME280;13450;49.374;8.584;2023-05-28T06:02:59;100687.25;;;14.39;100.00
25560;BME280;13450;49.374;8.584;2023-05-28T06:05:25;100687.72;;;14.56;100.00
25560;BME280;13450;49.374;8.584;2023-05-28T06:07:51;100690.63;;;14.68;100.00
25560;BME280;13450;49.374;8.584;2023-05-28T06:10:16;100686.13;;;14.89;100.00
25560;BME280;13450;49.374;8.584;2023-05-28T06:12:42;100685.66;;;15.06;100.00
25560;BME280;13450;49.374;8.584;2023-05-28T06:15:08;100687.72;;;15.24;100.00
25560;BME280;13450;49.374;8.584;2023-05-28T06:17:35;100677.72;;;15.38;100.00
25560;BME280;13450;49.374;8.584;2023-05-28T06:20:01;100676.03;;;15.50;100.00
25560;BME280;13450;49.374;8.584;2023-05-28T06:22:26;100678.09;;;15.62;100.00
25560;BME280;13450;49.374;8.584;2023-05-28T06:24:51;100681.75;;;15.74;100.00
25560;BME280;13450;49.374;8.584;2023-05-28T06:27:18;100689.19;;;15.86;100.00
25560;BME280;13450;49.374;8.584;2023-05-28T06:29:43;100678.78;;;15.96;100.00
25560;BME280;13450;49.374;8.584;2023-05-28T06:32:08;100687.06;;;16.01;100.00
25560;BME280;13450;49.374;8.584;2023-05-28T06:34:34;100675.84;;;16.04;100.00
25560;BME280;13450;49.374;8.584;2023-05-28T06:37:00;100676.44;;;16.13;100.00
25560;BME280;13450;49.374;8.584;2023-05-28T06:39:28;100679.47;;;16.24;100.00
25560;BME280;13450;49.374;8.584;2023-05-28T06:41:53;100679.00;;;16.33;100.00
25560;BME280;13450;49.374;8.584;2023-05-28T06:44:18;100681.03;;;16.38;100.00
25560;BME280;13450;49.374;8.584;2023-05-28T06:46:44;100678.72;;;16.42;100.00
25560;BME280;13450;49.374;8.584;2023-05-28T06:49:09;100683.44;;;16.53;100.00
25560;BME280;13450;49.374;8.584;2023-05-28T06:51:35;100681.69;;;16.66;100.00
25560;BME280;13450;49.374;8.584;2023-05-28T06:54:01;100688.47;;;16.75;100.00
25560;BME280;13450;49.374;8.584;2023-05-28T06:56:26;100690.91;;;16.83;100.00
25560;BME280;13450;49.374;8.584;2023-05-28T06:58:52;100694.34;;;16.91;100.00
25560;BME280;13450;49.374;8.584;2023-05-28T07:01:17;100690.53;;;16.98;100.00
25560;BME280;13450;49.374;8.584;2023-05-28T07:03:42;100695.28;;;17.03;100.00
25560;BME280;13450;49.374;8.584;2023-05-28T07:06:08;100697.06;;;17.16;100.00
25560;BME280;13450;49.374;8.584;2023-05-28T07:08:33;100697.31;;;17.33;100.00
25560;BME280;13450;49.374;8.584;2023-05-28T07:10:59;100690.50;;;17.49;100.00
25560;BME280;13450;49.374;8.584;2023-05-28T07:13:29;100686.22;;;17.60;100.00
25560;BME280;13450;49.374;8.584;2023-05-28T07:15:54;100683.88;;;17.64;98.64
25560;BME280;13450;49.374;8.584;2023-05-28T07:18:20;100684.53;;;17.59;96.07
25560;BME280;13450;49.374;8.584;2023-05-28T07:20:47;100690.94;;;17.65;100.00
25560;BME280;13450;49.374;8.584;2023-05-28T07:23:12;100692.28;;;17.74;98.58
25560;BME280;13450;49.374;8.584;2023-05-28T07:25:38;100691.16;;;17.82;98.62
25560;BME280;13450;49.374;8.584;2023-05-28T07:28:04;100694.38;;;17.91;100.00
25560;BME280;13450;49.374;8.584;2023-05-28T07:30:31;100694.63;;;18.01;97.26
25560;BME280;13450;49.374;8.584;2023-05-28T07:32:57;100701.94;;;18.20;92.76
25560;BME280;13450;49.374;8.584;2023-05-28T07:35:22;100702.91;;;18.25;91.53
25560;BME280;13450;49.374;8.584;2023-05-28T07:37:47;100700.78;;;18.27;90.62
25560;BME280;13450;49.374;8.584;2023-05-28T07:40:13;100696.91;;;18.35;95.99
25560;BME280;13450;49.374;8.584;2023-05-28T07:42:39;100691.50;;;18.35;96.99
25560;BME280;13450;49.374;8.584;2023-05-28T07:45:05;100697.09;;;18.52;95.05
25560;BME280;13450;49.374;8.584;2023-05-28T07:47:33;100698.28;;;18.56;81.95
25560;BME280;13450;49.374;8.584;2023-05-28T07:49:58;100696.50;;;18.74;78.87
25560;BME280;13450;49.374;8.584;2023-05-28T07:52:24;100698.31;;;18.92;74.01
25560;BME280;13450;49.374;8.584;2023-05-28T07:54:50;100696.78;;;18.97;72.34
25560;BME280;13450;49.374;8.584;2023-05-28T07:57:16;100696.91;;;19.02;72.47
25560;BME280;13450;49.374;8.584;2023-05-28T07:59:44;100693.97;;;19.15;69.54
25560;BME280;13450;49.374;8.584;2023-05-28T08:02:09;100699.41;;;19.27;71.89
25560;BME280;13450;49.374;8.584;2023-05-28T08:04:35;100694.91;;;19.33;71.12
25560;BME280;13450;49.374;8.584;2023-05-28T08:07:03;100690.78;;;19.42;70.57
25560;BME280;13450;49.374;8.584;2023-05-28T08:09:29;100691.59;;;19.55;69.78
25560;BME280;13450;49.374;8.584;2023-05-28T08:11:54;100695.47;;;19.59;70.89
25560;BME280;13450;49.374;8.584;2023-05-28T08:14:19;100688.50;;;19.63;68.06
25560;BME280;13450;49.374;8.584;2023-05-28T08:16:44;100688.59;;;19.68;68.15
25560;BME280;13450;49.374;8.584;2023-05-28T08:19:10;100692.81;;;19.76;67.18
25560;BME280;13450;49.374;8.584;2023-05-28T08:21:38;100684.53;;;19.83;64.86
25560;BME280;13450;49.374;8.584;2023-05-28T08:24:03;100678.72;;;19.91;66.02
25560;BME280;13450;49.374;8.584;2023-05-28T08:26:29;100682.34;;;20.09;67.92
25560;BME280;13450;49.374;8.584;2023-05-28T08:28:54;100676.25;;;20.19;67.89
25560;BME280;13450;49.374;8.584;2023-05-28T08:31:30;100673.38;;;20.25;65.86
25560;BME280;13450;49.374;8.584;2023-05-28T08:33:55;100668.63;;;20.33;67.35
25560;BME280;13450;49.374;8.584;2023-05-28T08:36:20;100665.44;;;20.36;67.70
25560;BME280;13450;49.374;8.584;2023-05-28T08:38:49;100664.44;;;20.42;68.05
25560;BME280;13450;49.374;8.584;2023-05-28T08:41:15;100661.41;;;20.56;66.05
25560;BME280;13450;49.374;8.584;2023-05-28T08:43:40;100654.00;;;20.68;66.43
25560;BME280;13450;49.374;8.584;2023-05-28T08:46:08;100654.72;;;20.81;64.56
25560;BME280;13450;49.374;8.584;2023-05-28T08:48:36;100655.97;;;20.90;60.62
25560;BME280;13450;49.374;8.584;2023-05-28T08:51:02;100653.41;;;21.00;63.61
25560;BME280;13450;49.374;8.584;2023-05-28T08:53:31;100648.03;;;21.06;61.97
25560;BME280;13450;49.374;8.584;2023-05-28T08:55:58;100649.84;;;21.17;62.54
25560;BME280;13450;49.374;8.584;2023-05-28T08:58:24;100648.81;;;21.23;61.61
25560;BME280;13450;49.374;8.584;2023-05-28T09:00:50;100642.88;;;21.26;59.46
25560;BME280;13450;49.374;8.584;2023-05-28T09:03:16;100646.31;;;21.39;57.76
25560;BME280;13450;49.374;8.584;2023-05-28T09:05:41;100641.38;;;21.36;58.04
25560;BME280;13450;49.374;8.584;2023-05-28T09:08:09;100644.53;;;21.27;57.23
25560;BME280;13450;49.374;8.584;2023-05-28T09:10:39;100638.06;;;21.34;59.08
25560;BME280;13450;49.374;8.584;2023-05-28T09:13:06;100636.34;;;21.50;58.03
25560;BME280;13450;49.374;8.584;2023-05-28T09:15:32;100634.56;;;21.61;56.01
25560;BME280;13450;49.374;8.584;2023-05-28T09:17:59;100621.88;;;21.72;55.20
25560;BME280;13450;49.374;8.584;2023-05-28T09:20:25;100631.66;;;21.90;55.86
25560;BME280;13450;49.374;8.584;2023-05-28T09:23:10;100629.06;;;22.05;53.09
25560;BME280;13450;49.374;8.584;2023-05-28T09:25:36;100633.03;;;22.20;52.59
25560;BME280;13450;49.374;8.584;2023-05-28T09:28:02;100627.66;;;22.30;52.61
25560;BME280;13450;49.374;8.584;2023-05-28T09:30:28;100623.34;;;22.34;52.34
25560;BME280;13450;49.374;8.584;2023-05-28T09:33:04;100620.66;;;22.40;54.10
25560;BME280;13450;49.374;8.584;2023-05-28T09:35:32;100623.63;;;22.38;52.20
25560;BME280;13450;49.374;8.584;2023-05-28T09:38:01;100625.63;;;22.48;52.31
25560;BME280;13450;49.374;8.584;2023-05-28T09:40:26;100622.94;;;22.53;52.90
25560;BME280;13450;49.374;8.584;2023-05-28T09:42:52;100617.09;;;22.72;51.26
25560;BME280;13450;49.374;8.584;2023-05-28T09:45:26;100618.16;;;22.66;49.88
25560;BME280;13450;49.374;8.584;2023-05-28T09:47:52;100621.56;;;22.89;52.05
25560;BME280;13450;49.374;8.584;2023-05-28T09:50:17;100615.31;;;22.93;49.00
25560;BME280;13450;49.374;8.584;2023-05-28T09:52:44;100612.69;;;23.14;49.22
25560;BME280;13450;49.374;8.584;2023-05-28T09:55:14;100610.25;;;23.18;47.07
25560;BME280;13450;49.374;8.584;2023-05-28T09:57:45;100607.09;;;23.42;47.56
25560;BME280;13450;49.374;8.584;2023-05-28T10:00:17;100606.88;;;23.59;48.24
25560;BME280;13450;49.374;8.584;2023-05-28T10:05:13;100606.91;;;23.74;47.63
25560;BME280;13450;49.374;8.584;2023-05-28T10:07:41;100605.50;;;23.61;44.32
25560;BME280;13450;49.374;8.584;2023-05-28T10:10:11;100607.16;;;23.73;45.93
25560;BME280;13450;49.374;8.584;2023-05-28T10:12:38;100597.91;;;23.74;43.74
25560;BME280;13450;49.374;8.584;2023-05-28T10:15:06;100602.81;;;23.77;43.38
25560;BME280;13450;49.374;8.584;2023-05-28T10:17:32;100601.81;;;24.14;44.67
25560;BME280;13450;49.374;8.584;2023-05-28T10:20:00;100609.72;;;24.26;43.03
25560;BME280;13450;49.374;8.584;2023-05-28T10:22:25;100612.72;;;24.35;43.72
25560;BME280;13450;49.374;8.584;2023-05-28T10:24:51;100612.16;;;24.54;44.90
25560;BME280;13450;49.374;8.584;2023-05-28T10:27:17;100612.16;;;24.59;41.18
25560;BME280;13450;49.374;8.584;2023-05-28T10:29:45;100605.03;;;24.58;40.91
25560;BME280;13450;49.374;8.584;2023-05-28T10:32:17;100596.81;;;24.84;41.04
25560;BME280;13450;49.374;8.584;2023-05-28T10:34:43;100602.81;;;24.91;42.18
25560;BME280;13450;49.374;8.584;2023-05-28T10:37:10;100601.69;;;24.98;40.22
25560;BME280;13450;49.374;8.584;2023-05-28T10:39:40;100599.22;;;25.06;37.61
25560;BME280;13450;49.374;8.584;2023-05-28T10:42:07;100609.88;;;25.03;38.83
25560;BME280;13450;49.374;8.584;2023-05-28T10:44:52;100594.56;;;25.02;38.54
25560;BME280;13450;49.374;8.584;2023-05-28T10:47:33;100592.78;;;25.37;38.17
25560;BME280;13450;49.374;8.584;2023-05-28T10:52:32;100597.25;;;25.73;36.77
25560;BME280;13450;49.374;8.584;2023-05-28T10:55:01;100598.53;;;25.86;36.21
25560;BME280;13450;49.374;8.584;2023-05-28T10:57:43;100588.56;;;26.01;35.64
25560;BME280;13450;49.374;8.584;2023-05-28T11:00:09;100580.00;;;26.07;35.23
25560;BME280;13450;49.374;8.584;2023-05-28T11:02:44;100581.00;;;26.51;35.99
25560;BME280;13450;49.374;8.584;2023-05-28T11:05:12;100578.06;;;26.72;35.78
25560;BME280;13450;49.374;8.584;2023-05-28T11:07:41;100582.69;;;27.01;35.84
25560;BME280;13450;49.374;8.584;2023-05-28T11:10:11;100579.84;;;28.22;33.26
25560;BME280;13450;49.374;8.584;2023-05-28T11:12:39;100574.44;;;29.20;32.13
25560;BME280;13450;49.374;8.584;2023-05-28T11:15:06;100570.75;;;31.03;30.21
25560;BME280;13450;49.374;8.584;2023-05-28T11:17:42;100577.56;;;32.77;26.04
25560;BME280;13450;49.374;8.584;2023-05-28T11:22:43;100566.94;;;34.78;23.27
25560;BME280;13450;49.374;8.584;2023-05-28T11:25:09;100569.63;;;36.27;21.76
25560;BME280;13450;49.374;8.584;2023-05-28T11:27:35;100575.06;;;36.23;20.66
25560;BME280;13450;49.374;8.584;2023-05-28T11:30:13;100566.19;;;36.33;21.31
25560;BME280;13450;49.374;8.584;2023-05-28T11:32:39;100566.53;;;36.80;19.76
25560;BME280;13450;49.374;8.584;2023-05-28T11:35:05;100566.81;;;36.75;20.00
25560;BME280;13450;49.374;8.584;2023-05-28T11:37:33;100558.41;;;38.33;19.38
25560;BME280;13450;49.374;8.584;2023-05-28T11:40:01;100562.66;;;38.74;17.72
25560;BME280;13450;49.374;8.584;2023-05-28T11:42:30;100560.56;;;37.97;18.55
25560;BME280;13450;49.374;8.584;2023-05-28T11:44:58;100567.16;;;37.65;20.06
25560;BME280;13450;49.374;8.584;2023-05-28T11:47:24;100558.19;;;37.99;18.00
25560;BME280;13450;49.374;8.584;2023-05-28T11:49:50;100560.72;;;38.78;19.56
25560;BME280;13450;49.374;8.584;2023-05-28T11:54:46;100553.91;;;39.36;17.06
25560;BME280;13450;49.374;8.584;2023-05-28T11:57:19;100558.78;;;39.78;16.34
25560;BME280;13450;49.374;8.584;2023-05-28T11:59:54;100555.09;;;39.35;16.27
25560;BME280;13450;49.374;8.584;2023-05-28T12:02:22;100549.13;;;39.37;16.27
25560;BME280;13450;49.374;8.584;2023-05-28T12:04:57;100545.72;;;39.20;16.29
25560;BME280;13450;49.374;8.584;2023-05-28T12:07:28;100552.41;;;40.22;17.26
25560;BME280;13450;49.374;8.584;2023-05-28T12:10:08;100547.00;;;39.27;16.86
25560;BME280;13450;49.374;8.584;2023-05-28T12:12:38;100543.09;;;39.69;16.17
25560;BME280;13450;49.374;8.584;2023-05-28T12:15:05;100535.72;;;38.89;16.62
25560;BME280;13450;49.374;8.584;2023-05-28T12:17:36;100538.06;;;39.86;15.85
25560;BME280;13450;49.374;8.584;2023-05-28T12:20:06;100525.88;;;40.09;15.60
25560;BME280;13450;49.374;8.584;2023-05-28T12:22:33;100531.91;;;41.45;15.11
25560;BME280;13450;49.374;8.584;2023-05-28T12:25:00;100532.13;;;41.03;15.28
25560;BME280;13450;49.374;8.584;2023-05-28T12:27:26;100531.06;;;41.34;14.88
25560;BME280;13450;49.374;8.584;2023-05-28T12:29:51;100537.19;;;41.83;14.51
25560;BME280;13450;49.374;8.584;2023-05-28T12:32:16;100524.69;;;41.48;14.71
25560;BME280;13450;49.374;8.584;2023-05-28T12:34:42;100526.63;;;41.25;15.15
25560;BME280;13450;49.374;8.584;2023-05-28T12:37:08;100522.38;;;40.75;17.09
25560;BME280;13450;49.374;8.584;2023-05-28T12:39:33;100526.69;;;41.54;15.18
25560;BME280;13450;49.374;8.584;2023-05-28T12:42:01;100529.19;;;41.92;14.96
25560;BME280;13450;49.374;8.584;2023-05-28T12:44:29;100522.75;;;41.85;14.60
25560;BME280;13450;49.374;8.584;2023-05-28T12:46:54;100525.94;;;41.65;14.29
25560;BME280;13450;49.374;8.584;2023-05-28T12:49:20;100507.09;;;42.16;13.94
25560;BME280;13450;49.374;8.584;2023-05-28T12:51:45;100510.56;;;41.22;14.38
25560;BME280;13450;49.374;8.584;2023-05-28T12:54:10;100503.31;;;43.03;13.76